sensor_id;sensor_type;location;lat;lon;timestamp;P1;durP1;ratioP1;P2;durP2;ratioP2
24411;SDS011;12544;46.760;15.942;2023-05-18T00:02:21;2.83;;;1.50;;
24411;SDS011;12544;46.760;15.942;2023-05-18T00:04:47;1.70;;;1.40;;
24411;SDS011;12544;46.760;15.942;2023-05-18T00:07:13;4.32;;;1.70;;
24411;SDS011;12544;46.760;15.942;2023-05-18T00:09:39;1.77;;;1.65;;
24411;SDS011;12544;46.760;15.942;2023-05-18T00:12:05;3.65;;;1.80;;
24411;SDS011;12544;46.760;15.942;2023-05-18T00:14:31;2.28;;;1.48;;
24411;SDS011;12544;46.760;15.942;2023-05-18T00:16:57;1.98;;;1.30;;
24411;SDS011;12544;46.760;15.942;2023-05-18T00:19:25;1.40;;;1.30;;
24411;SDS011;12544;46.760;15.942;2023-05-18T00:21:52;1.80;;;1.10;;
24411;SDS011;12544;46.760;15.942;2023-05-18T00:24:20;1.63;;;1.33;;
24411;SDS011;12544;46.760;15.942;2023-05-18T00:26:46;1.17;;;1.10;;
24411;SDS011;12544;46.760;15.942;2023-05-18T00:29:12;1.48;;;1.15;;
24411;SDS011;12544;46.760;15.942;2023-05-18T00:31:45;1.30;;;1.20;;
24411;SDS011;12544;46.760;15.942;2023-05-18T00:34:11;1.27;;;1.17;;
24411;SDS011;12544;46.760;15.942;2023-05-18T00:36:38;1.55;;;1.40;;
24411;SDS011;12544;46.760;15.942;2023-05-18T00:39:04;1.73;;;1.20;;
24411;SDS011;12544;46.760;15.942;2023-05-18T00:41:31;3.60;;;1.40;;
24411;SDS011;12544;46.760;15.942;2023-05-18T00:43:57;1.77;;;1.30;;
24411;SDS011;12544;46.760;15.942;2023-05-18T00:46:25;1.35;;;1.20;;
24411;SDS011;12544;46.760;15.942;2023-05-18T00:48:51;2.03;;;1.30;;
24411;SDS011;12544;46.760;15.942;2023-05-18T00:51:19;1.10;;;1.00;;
24411;SDS011;12544;46.760;15.942;2023-05-18T00:53:47;1.77;;;1.00;;
24411;SDS011;12544;46.760;15.942;2023-05-18T00:56:24;1.48;;;1.10;;
24411;SDS011;12544;46.760;15.942;2023-05-18T00:58:51;1.33;;;1.23;;
24411;SDS011;12544;46.760;15.942;2023-05-18T01:01:19;1.30;;;1.20;;
24411;SDS011;12544;46.760;15.942;2023-05-18T01:03:52;1.30;;;1.20;;
24411;SDS011;12544;46.760;15.942;2023-05-18T01:06:20;1.30;;;1.20;;
24411;SDS011;12544;46.760;15.942;2023-05-18T01:08:52;7.75;;;1.30;;
24411;SDS011;12544;46.760;15.942;2023-05-18T01:16:24;2.63;;;1.30;;
24411;SDS011;12544;46.760;15.942;2023-05-18T01:19:00;1.88;;;1.17;;
24411;SDS011;12544;46.760;15.942;2023-05-18T01:21:58;1.45;;;1.15;;
24411;SDS011;12544;46.760;15.942;2023-05-18T01:24:43;1.60;;;1.17;;
24411;SDS011;12544;46.760;15.942;2023-05-18T01:27:14;1.50;;;1.40;;
24411;SDS011;12544;46.760;15.942;2023-05-18T01:29:41;1.33;;;1.23;;
24411;SDS011;12544;46.760;15.942;2023-05-18T01:32:09;1.50;;;1.40;;
24411;SDS011;12544;46.760;15.942;2023-05-18T01:34:45;1.75;;;1.42;;
24411;SDS011;12544;46.760;15.942;2023-05-18T01:37:11;1.83;;;1.35;;
24411;SDS011;12544;46.760;15.942;2023-05-18T01:39:36;1.70;;;1.42;;
24411;SDS011;12544;46.760;15.942;2023-05-18T01:42:05;2.58;;;1.30;;
24411;SDS011;12544;46.760;15.942;2023-05-18T01:44:38;2.15;;;1.38;;
24411;SDS011;12544;46.760;15.942;2023-05-18T01:47:16;9.07;;;1.30;;
24411;SDS011;12544;46.760;15.942;2023-05-18T01:55:44;3.13;;;1.53;;
24411;SDS011;12544;46.760;15.942;2023-05-18T01:58:12;2.85;;;1.30;;
24411;SDS011;12544;46.760;15.942;2023-05-18T02:00:38;2.83;;;1.98;;
24411;SDS011;12544;46.760;15.942;2023-05-18T02:03:04;1.48;;;1.30;;
24411;SDS011;12544;46.760;15.942;2023-05-18T02:05:30;2.25;;;1.45;;
24411;SDS011;12544;46.760;15.942;2023-05-18T02:07:55;3.08;;;1.48;;
24411;SDS011;12544;46.760;15.942;2023-05-18T02:10:28;1.20;;;1.08;;
24411;SDS011;12544;46.760;15.942;2023-05-18T02:12:54;1.52;;;1.42;;
24411;SDS011;12544;46.760;15.942;2023-05-18T02:15:19;1.75;;;1.25;;
24411;SDS011;12544;46.760;15.942;2023-05-18T02:17:45;1.88;;;1.40;;
24411;SDS011;12544;46.760;15.942;2023-05-18T02:20:11;1.60;;;1.50;;
24411;SDS011;12544;46.760;15.942;2023-05-18T02:22:37;1.73;;;1.63;;
24411;SDS011;12544;46.760;15.942;2023-05-18T02:25:03;1.60;;;1.50;;
24411;SDS011;12544;46.760;15.942;2023-05-18T02:27:29;3.38;;;1.60;;
24411;SDS011;12544;46.760;15.942;2023-05-18T02:29:56;2.55;;;1.65;;
24411;SDS011;12544;46.760;15.942;2023-05-18T02:32:28;1.50;;;1.40;;
24411;SDS011;12544;46.760;15.942;2023-05-18T02:34:56;1.80;;;1.58;;
24411;SDS011;12544;46.760;15.942;2023-05-18T02:37:26;1.85;;;1.75;;
24411;SDS011;12544;46.760;15.942;2023-05-18T02:39:52;2.83;;;1.92;;
24411;SDS011;12544;46.760;15.942;2023-05-18T02:42:17;2.10;;;1.80;;
24411;SDS011;12544;46.760;15.942;2023-05-18T02:44:43;2.65;;;1.90;;
24411;SDS011;12544;46.760;15.942;2023-05-18T02:47:10;2.15;;;1.95;;
24411;SDS011;12544;46.760;15.942;2023-05-18T02:49:35;2.25;;;1.70;;
24411;SDS011;12544;46.760;15.942;2023-05-18T02:52:01;2.97;;;2.15;;
24411;SDS011;12544;46.760;15.942;2023-05-18T02:54:26;2.13;;;1.92;;
24411;SDS011;12544;46.760;15.942;2023-05-18T02:56:52;3.95;;;1.70;;
24411;SDS011;12544;46.760;15.942;2023-05-18T02:59:20;4.13;;;1.90;;
24411;SDS011;12544;46.760;15.942;2023-05-18T03:01:46;1.98;;;1.77;;
24411;SDS011;12544;46.760;15.942;2023-05-18T03:04:12;2.30;;;2.10;;
24411;SDS011;12544;46.760;15.942;2023-05-18T03:06:38;2.88;;;1.90;;
24411;SDS011;12544;46.760;15.942;2023-05-18T03:09:04;3.30;;;1.90;;
24411;SDS011;12544;46.760;15.942;2023-05-18T03:11:29;3.25;;;1.80;;
24411;SDS011;12544;46.760;15.942;2023-05-18T03:13:55;2.00;;;1.73;;
24411;SDS011;12544;46.760;15.942;2023-05-18T03:16:21;1.80;;;1.55;;
24411;SDS011;12544;46.760;15.942;2023-05-18T03:18:52;1.85;;;1.40;;
24411;SDS011;12544;46.760;15.942;2023-05-18T03:21:23;2.83;;;1.70;;
24411;SDS011;12544;46.760;15.942;2023-05-18T03:23:49;1.73;;;1.60;;
24411;SDS011;12544;46.760;15.942;2023-05-18T03:26:15;1.98;;;1.77;;
24411;SDS011;12544;46.760;15.942;2023-05-18T03:28:40;3.20;;;2.17;;
24411;SDS011;12544;46.760;15.942;2023-05-18T03:31:06;2.60;;;1.70;;
24411;SDS011;12544;46.760;15.942;2023-05-18T03:33:32;2.78;;;1.85;;
24411;SDS011;12544;46.760;15.942;2023-05-18T03:36:01;2.53;;;2.30;;
24411;SDS011;12544;46.760;15.942;2023-05-18T03:38:28;3.28;;;2.20;;
24411;SDS011;12544;46.760;15.942;2023-05-18T03:40:54;3.13;;;1.80;;
24411;SDS011;12544;46.760;15.942;2023-05-18T03:43:20;4.47;;;2.10;;
24411;SDS011;12544;46.760;15.942;2023-05-18T03:45:49;2.65;;;1.63;;
24411;SDS011;12544;46.760;15.942;2023-05-18T03:48:14;2.78;;;2.00;;
24411;SDS011;12544;46.760;15.942;2023-05-18T03:50:54;2.10;;;1.90;;
24411;SDS011;12544;46.760;15.942;2023-05-18T03:53:20;2.47;;;1.98;;
24411;SDS011;12544;46.760;15.942;2023-05-18T03:55:46;3.28;;;1.90;;
24411;SDS011;12544;46.760;15.942;2023-05-18T03:58:15;3.47;;;2.17;;
24411;SDS011;12544;46.760;15.942;2023-05-18T04:00:41;2.95;;;2.00;;
24411;SDS011;12544;46.760;15.942;2023-05-18T04:03:10;2.88;;;1.80;;
24411;SDS011;12544;46.760;15.942;2023-05-18T04:05:37;3.83;;;1.90;;
24411;SDS011;12544;46.760;15.942;2023-05-18T04:08:12;2.22;;;1.85;;
24411;SDS011;12544;46.760;15.942;2023-05-18T04:10:40;4.82;;;2.00;;
24411;SDS011;12544;46.760;15.942;2023-05-18T04:13:06;2.25;;;1.73;;
24411;SDS011;12544;46.760;15.942;2023-05-18T04:15:32;2.00;;;1.70;;
24411;SDS011;12544;46.760;15.942;2023-05-18T04:17:58;2.22;;;1.92;;
24411;SDS011;12544;46.760;15.942;2023-05-18T04:20:26;2.42;;;2.17;;
24411;SDS011;12544;46.760;15.942;2023-05-18T04:22:52;7.32;;;3.65;;
24411;SDS011;12544;46.760;15.942;2023-05-18T04:25:18;3.53;;;2.20;;
24411;SDS011;12544;46.760;15.942;2023-05-18T04:27:44;3.25;;;2.15;;
24411;SDS011;12544;46.760;15.942;2023-05-18T04:30:10;5.32;;;2.42;;
24411;SDS011;12544;46.760;15.942;2023-05-18T04:32:36;3.42;;;2.10;;
24411;SDS011;12544;46.760;15.942;2023-05-18T04:35:05;3.20;;;2.00;;
24411;SDS011;12544;46.760;15.942;2023-05-18T04:37:34;4.25;;;2.40;;
24411;SDS011;12544;46.760;15.942;2023-05-18T04:40:06;3.25;;;2.40;;
24411;SDS011;12544;46.760;15.942;2023-05-18T04:42:37;4.80;;;2.70;;
24411;SDS011;12544;46.760;15.942;2023-05-18T04:45:09;4.75;;;2.17;;
24411;SDS011;12544;46.760;15.942;2023-05-18T04:47:36;3.45;;;2.15;;
24411;SDS011;12544;46.760;15.942;2023-05-18T04:50:02;6.90;;;2.35;;
24411;SDS011;12544;46.760;15.942;2023-05-18T04:52:29;8.85;;;3.00;;
24411;SDS011;12544;46.760;15.942;2023-05-18T04:55:05;3.28;;;2.40;;
24411;SDS011;12544;46.760;15.942;2023-05-18T04:57:34;6.07;;;2.33;;
24411;SDS011;12544;46.760;15.942;2023-05-18T05:00:00;2.70;;;2.03;;
24411;SDS011;12544;46.760;15.942;2023-05-18T05:02:29;3.97;;;2.80;;
24411;SDS011;12544;46.760;15.942;2023-05-18T05:04:55;3.13;;;2.22;;
24411;SDS011;12544;46.760;15.942;2023-05-18T05:07:26;6.32;;;2.95;;
24411;SDS011;12544;46.760;15.942;2023-05-18T05:09:52;4.50;;;2.42;;
24411;SDS011;12544;46.760;15.942;2023-05-18T05:12:18;4.60;;;2.58;;
24411;SDS011;12544;46.760;15.942;2023-05-18T05:14:44;4.65;;;2.45;;
24411;SDS011;12544;46.760;15.942;2023-05-18T05:17:09;4.35;;;2.47;;
24411;SDS011;12544;46.760;15.942;2023-05-18T05:19:36;4.40;;;2.60;;
24411;SDS011;12544;46.760;15.942;2023-05-18T05:22:10;5.32;;;2.05;;
24411;SDS011;12544;46.760;15.942;2023-05-18T05:24:36;3.80;;;1.80;;
24411;SDS011;12544;46.760;15.942;2023-05-18T05:27:01;4.28;;;2.08;;
24411;SDS011;12544;46.760;15.942;2023-05-18T05:29:27;5.30;;;1.92;;
24411;SDS011;12544;46.760;15.942;2023-05-18T05:31:53;2.40;;;1.92;;
24411;SDS011;12544;46.760;15.942;2023-05-18T05:36:54;7.45;;;2.58;;
24411;SDS011;12544;46.760;15.942;2023-05-18T05:39:20;4.35;;;2.42;;
24411;SDS011;12544;46.760;15.942;2023-05-18T05:41:45;2.72;;;2.30;;
24411;SDS011;12544;46.760;15.942;2023-05-18T05:44:11;3.92;;;2.65;;
24411;SDS011;12544;46.760;15.942;2023-05-18T05:46:36;5.90;;;3.10;;
24411;SDS011;12544;46.760;15.942;2023-05-18T05:49:02;3.13;;;2.35;;
24411;SDS011;12544;46.760;15.942;2023-05-18T05:51:28;3.08;;;2.15;;
24411;SDS011;12544;46.760;15.942;2023-05-18T05:53:53;3.90;;;2.33;;
24411;SDS011;12544;46.760;15.942;2023-05-18T05:56:19;5.90;;;2.72;;
24411;SDS011;12544;46.760;15.942;2023-05-18T05:58:45;3.58;;;2.53;;
24411;SDS011;12544;46.760;15.942;2023-05-18T06:01:10;5.35;;;2.28;;
24411;SDS011;12544;46.760;15.942;2023-05-18T06:03:36;4.95;;;1.85;;
24411;SDS011;12544;46.760;15.942;2023-05-18T06:06:02;3.90;;;2.45;;
24411;SDS011;12544;46.760;15.942;2023-05-18T06:08:28;7.95;;;5.22;;
24411;SDS011;12544;46.760;15.942;2023-05-18T06:10:54;6.20;;;2.78;;
24411;SDS011;12544;46.760;15.942;2023-05-18T06:13:19;5.72;;;4.00;;
24411;SDS011;12544;46.760;15.942;2023-05-18T06:15:45;7.90;;;5.47;;
24411;SDS011;12544;46.760;15.942;2023-05-18T06:18:10;7.03;;;3.08;;
24411;SDS011;12544;46.760;15.942;2023-05-18T06:20:36;5.03;;;3.90;;
24411;SDS011;12544;46.760;15.942;2023-05-18T06:23:03;5.45;;;3.63;;
24411;SDS011;12544;46.760;15.942;2023-05-18T06:25:28;7.50;;;3.10;;
24411;SDS011;12544;46.760;15.942;2023-05-18T06:27:54;6.40;;;3.20;;
24411;SDS011;12544;46.760;15.942;2023-05-18T06:30:20;5.00;;;3.50;;
24411;SDS011;12544;46.760;15.942;2023-05-18T06:32:45;5.50;;;2.80;;
24411;SDS011;12544;46.760;15.942;2023-05-18T06:35:11;5.30;;;3.33;;
24411;SDS011;12544;46.760;15.942;2023-05-18T06:37:37;4.28;;;3.35;;
24411;SDS011;12544;46.760;15.942;2023-05-18T06:40:04;4.18;;;3.53;;
24411;SDS011;12544;46.760;15.942;2023-05-18T06:42:33;4.72;;;3.35;;
24411;SDS011;12544;46.760;15.942;2023-05-18T06:44:59;5.35;;;3.35;;
24411;SDS011;12544;46.760;15.942;2023-05-18T06:47:24;4.30;;;3.42;;
24411;SDS011;12544;46.760;15.942;2023-05-18T06:49:50;5.45;;;3.88;;
24411;SDS011;12544;46.760;15.942;2023-05-18T06:52:15;6.47;;;4.03;;
24411;SDS011;12544;46.760;15.942;2023-05-18T06:54:41;4.85;;;3.85;;
24411;SDS011;12544;46.760;15.942;2023-05-18T06:57:07;8.57;;;4.68;;
24411;SDS011;12544;46.760;15.942;2023-05-18T06:59:32;9.50;;;4.18;;
24411;SDS011;12544;46.760;15.942;2023-05-18T07:02:01;6.80;;;3.88;;
24411;SDS011;12544;46.760;15.942;2023-05-18T07:04:27;7.95;;;5.15;;
24411;SDS011;12544;46.760;15.942;2023-05-18T07:06:53;5.78;;;4.40;;
24411;SDS011;12544;46.760;15.942;2023-05-18T07:09:20;7.90;;;3.88;;
24411;SDS011;12544;46.760;15.942;2023-05-18T07:11:46;7.78;;;4.15;;
24411;SDS011;12544;46.760;15.942;2023-05-18T07:14:12;9.27;;;4.40;;
24411;SDS011;12544;46.760;15.942;2023-05-18T07:16:38;10.02;;;4.85;;
24411;SDS011;12544;46.760;15.942;2023-05-18T07:19:03;6.43;;;4.22;;
24411;SDS011;12544;46.760;15.942;2023-05-18T07:21:29;4.68;;;3.88;;
24411;SDS011;12544;46.760;15.942;2023-05-18T07:23:55;9.02;;;4.03;;
24411;SDS011;12544;46.760;15.942;2023-05-18T07:26:21;10.57;;;4.38;;
24411;SDS011;12544;46.760;15.942;2023-05-18T07:28:47;8.10;;;4.30;;
24411;SDS011;12544;46.760;15.942;2023-05-18T07:31:13;6.07;;;4.30;;
24411;SDS011;12544;46.760;15.942;2023-05-18T07:33:40;4.80;;;3.70;;
24411;SDS011;12544;46.760;15.942;2023-05-18T07:36:06;4.65;;;4.07;;
24411;SDS011;12544;46.760;15.942;2023-05-18T07:38:32;9.90;;;4.50;;
24411;SDS011;12544;46.760;15.942;2023-05-18T07:40:58;6.25;;;4.30;;
24411;SDS011;12544;46.760;15.942;2023-05-18T07:43:26;4.95;;;3.78;;
24411;SDS011;12544;46.760;15.942;2023-05-18T07:45:52;5.05;;;3.88;;
24411;SDS011;12544;46.760;15.942;2023-05-18T07:48:17;7.72;;;4.10;;
24411;SDS011;12544;46.760;15.942;2023-05-18T07:50:45;6.28;;;3.90;;
24411;SDS011;12544;46.760;15.942;2023-05-18T07:53:11;8.60;;;4.80;;
24411;SDS011;12544;46.760;15.942;2023-05-18T07:55:36;8.38;;;4.22;;
24411;SDS011;12544;46.760;15.942;2023-05-18T07:58:02;5.80;;;4.18;;
24411;SDS011;12544;46.760;15.942;2023-05-18T08:00:27;7.25;;;4.30;;
24411;SDS011;12544;46.760;15.942;2023-05-18T08:02:54;6.97;;;4.00;;
24411;SDS011;12544;46.760;15.942;2023-05-18T08:05:20;7.28;;;4.32;;
24411;SDS011;12544;46.760;15.942;2023-05-18T08:07:59;11.38;;;4.43;;
24411;SDS011;12544;46.760;15.942;2023-05-18T08:10:26;5.22;;;3.78;;
24411;SDS011;12544;46.760;15.942;2023-05-18T08:12:52;7.00;;;4.50;;
24411;SDS011;12544;46.760;15.942;2023-05-18T08:15:17;10.82;;;5.50;;
24411;SDS011;12544;46.760;15.942;2023-05-18T08:17:43;4.50;;;4.05;;
24411;SDS011;12544;46.760;15.942;2023-05-18T08:20:09;4.13;;;3.42;;
24411;SDS011;12544;46.760;15.942;2023-05-18T08:22:35;5.82;;;3.90;;
24411;SDS011;12544;46.760;15.942;2023-05-18T08:25:00;7.55;;;4.13;;
24411;SDS011;12544;46.760;15.942;2023-05-18T08:30:13;9.63;;;4.30;;
24411;SDS011;12544;46.760;15.942;2023-05-18T08:32:39;8.77;;;3.75;;
24411;SDS011;12544;46.760;15.942;2023-05-18T08:35:05;8.25;;;4.32;;
24411;SDS011;12544;46.760;15.942;2023-05-18T08:37:35;5.57;;;4.07;;
24411;SDS011;12544;46.760;15.942;2023-05-18T08:42:38;4.43;;;3.42;;
24411;SDS011;12544;46.760;15.942;2023-05-18T08:45:12;5.15;;;3.70;;
24411;SDS011;12544;46.760;15.942;2023-05-18T08:47:44;8.10;;;4.20;;
24411;SDS011;12544;46.760;15.942;2023-05-18T08:50:12;7.28;;;3.75;;
24411;SDS011;12544;46.760;15.942;2023-05-18T08:52:41;5.53;;;3.58;;
24411;SDS011;12544;46.760;15.942;2023-05-18T08:55:18;6.38;;;4.28;;
24411;SDS011;12544;46.760;15.942;2023-05-18T08:57:45;6.32;;;4.28;;
24411;SDS011;12544;46.760;15.942;2023-05-18T09:00:19;7.47;;;4.10;;
24411;SDS011;12544;46.760;15.942;2023-05-18T09:02:46;10.57;;;4.93;;
24411;SDS011;12544;46.760;15.942;2023-05-18T09:05:12;5.78;;;3.65;;
24411;SDS011;12544;46.760;15.942;2023-05-18T09:07:39;8.25;;;4.35;;
24411;SDS011;12544;46.760;15.942;2023-05-18T09:12:50;6.32;;;3.53;;
24411;SDS011;12544;46.760;15.942;2023-05-18T09:15:18;6.13;;;4.13;;
24411;SDS011;12544;46.760;15.942;2023-05-18T09:17:45;7.05;;;3.85;;
24411;SDS011;12544;46.760;15.942;2023-05-18T09:20:11;6.13;;;3.90;;
24411;SDS011;12544;46.760;15.942;2023-05-18T09:22:37;7.88;;;4.80;;
24411;SDS011;12544;46.760;15.942;2023-05-18T09:25:04;5.40;;;4.13;;
24411;SDS011;12544;46.760;15.942;2023-05-18T09:27:33;5.38;;;3.55;;
24411;SDS011;12544;46.760;15.942;2023-05-18T09:29:58;3.88;;;3.47;;
24411;SDS011;12544;46.760;15.942;2023-05-18T09:32:25;7.50;;;4.00;;
24411;SDS011;12544;46.760;15.942;2023-05-18T09:34:51;4.90;;;4.32;;
24411;SDS011;12544;46.760;15.942;2023-05-18T09:37:20;9.20;;;4.40;;
24411;SDS011;12544;46.760;15.942;2023-05-18T09:40:19;5.40;;;4.05;;
24411;SDS011;12544;46.760;15.942;2023-05-18T09:42:41;8.98;;;3.85;;
24411;SDS011;12544;46.760;15.942;2023-05-18T09:45:18;9.13;;;3.97;;
24411;SDS011;12544;46.760;15.942;2023-05-18T09:47:48;6.80;;;3.35;;
24411;SDS011;12544;46.760;15.942;2023-05-18T09:50:18;8.25;;;3.92;;
24411;SDS011;12544;46.760;15.942;2023-05-18T09:52:45;5.03;;;3.67;;
24411;SDS011;12544;46.760;15.942;2023-05-18T09:55:11;8.38;;;5.05;;
24411;SDS011;12544;46.760;15.942;2023-05-18T09:57:43;9.48;;;4.85;;
24411;SDS011;12544;46.760;15.942;2023-05-18T10:00:14;5.85;;;3.67;;
24411;SDS011;12544;46.760;15.942;2023-05-18T10:02:44;10.02;;;4.30;;
24411;SDS011;12544;46.760;15.942;2023-05-18T10:07:51;5.68;;;3.38;;
24411;SDS011;12544;46.760;15.942;2023-05-18T10:10:24;5.35;;;3.70;;
24411;SDS011;12544;46.760;15.942;2023-05-18T10:12:51;5.88;;;3.85;;
24411;SDS011;12544;46.760;15.942;2023-05-18T10:15:19;6.47;;;3.95;;
24411;SDS011;12544;46.760;15.942;2023-05-18T10:17:46;5.88;;;3.17;;
24411;SDS011;12544;46.760;15.942;2023-05-18T10:20:16;9.63;;;3.38;;
24411;SDS011;12544;46.760;15.942;2023-05-18T10:22:44;4.78;;;3.97;;
24411;SDS011;12544;46.760;15.942;2023-05-18T10:25:13;6.53;;;3.40;;
24411;SDS011;12544;46.760;15.942;2023-05-18T10:27:50;4.40;;;3.47;;
24411;SDS011;12544;46.760;15.942;2023-05-18T10:30:21;4.47;;;3.53;;
24411;SDS011;12544;46.760;15.942;2023-05-18T10:32:47;4.97;;;3.40;;
24411;SDS011;12544;46.760;15.942;2023-05-18T10:35:13;6.50;;;3.65;;
24411;SDS011;12544;46.760;15.942;2023-05-18T10:37:47;6.00;;;4.20;;
24411;SDS011;12544;46.760;15.942;2023-05-18T10:40:14;7.15;;;3.80;;
24411;SDS011;12544;46.760;15.942;2023-05-18T10:42:41;8.32;;;4.63;;
24411;SDS011;12544;46.760;15.942;2023-05-18T10:45:08;5.97;;;3.95;;
24411;SDS011;12544;46.760;15.942;2023-05-18T10:47:35;4.57;;;3.33;;
24411;SDS011;12544;46.760;15.942;2023-05-18T10:50:03;5.97;;;3.90;;
24411;SDS011;12544;46.760;15.942;2023-05-18T10:52:30;6.25;;;4.65;;
24411;SDS011;12544;46.760;15.942;2023-05-18T10:54:59;8.40;;;4.55;;
24411;SDS011;12544;46.760;15.942;2023-05-18T10:57:26;6.40;;;4.32;;
24411;SDS011;12544;46.760;15.942;2023-05-18T10:59:56;7.63;;;3.67;;
24411;SDS011;12544;46.760;15.942;2023-05-18T11:02:22;5.18;;;3.78;;
24411;SDS011;12544;46.760;15.942;2023-05-18T11:04:49;6.05;;;4.10;;
24411;SDS011;12544;46.760;15.942;2023-05-18T11:07:17;8.00;;;3.97;;
24411;SDS011;12544;46.760;15.942;2023-05-18T11:09:46;4.57;;;3.53;;
24411;SDS011;12544;46.760;15.942;2023-05-18T11:12:14;6.95;;;4.18;;
24411;SDS011;12544;46.760;15.942;2023-05-18T11:14:52;8.65;;;4.90;;
24411;SDS011;12544;46.760;15.942;2023-05-18T11:17:27;5.22;;;3.95;;
24411;SDS011;12544;46.760;15.942;2023-05-18T11:22:45;9.05;;;4.82;;
24411;SDS011;12544;46.760;15.942;2023-05-18T11:27:51;4.32;;;3.88;;
24411;SDS011;12544;46.760;15.942;2023-05-18T11:30:25;4.85;;;3.20;;
24411;SDS011;12544;46.760;15.942;2023-05-18T11:32:51;4.05;;;3.55;;
24411;SDS011;12544;46.760;15.942;2023-05-18T11:35:23;7.28;;;4.00;;
24411;SDS011;12544;46.760;15.942;2023-05-18T11:37:48;6.45;;;3.22;;
24411;SDS011;12544;46.760;15.942;2023-05-18T11:43:18;7.90;;;4.57;;
24411;SDS011;12544;46.760;15.942;2023-05-18T11:45:55;5.13;;;4.28;;
24411;SDS011;12544;46.760;15.942;2023-05-18T11:48:31;6.82;;;3.58;;
24411;SDS011;12544;46.760;15.942;2023-05-18T11:50:57;5.38;;;3.50;;
24411;SDS011;12544;46.760;15.942;2023-05-18T11:53:23;5.97;;;3.33;;
24411;SDS011;12544;46.760;15.942;2023-05-18T11:55:54;5.38;;;3.78;;
24411;SDS011;12544;46.760;15.942;2023-05-18T11:58:22;7.10;;;4.60;;
24411;SDS011;12544;46.760;15.942;2023-05-18T12:00:49;6.22;;;4.25;;
24411;SDS011;12544;46.760;15.942;2023-05-18T12:03:15;5.85;;;3.78;;
24411;SDS011;12544;46.760;15.942;2023-05-18T12:05:42;5.05;;;3.63;;
24411;SDS011;12544;46.760;15.942;2023-05-18T12:08:16;5.35;;;3.58;;
24411;SDS011;12544;46.760;15.942;2023-05-18T12:10:43;5.50;;;3.63;;
24411;SDS011;12544;46.760;15.942;2023-05-18T12:13:14;7.22;;;3.63;;
24411;SDS011;12544;46.760;15.942;2023-05-18T12:15:41;6.90;;;3.72;;
24411;SDS011;12544;46.760;15.942;2023-05-18T12:18:09;7.25;;;3.70;;
24411;SDS011;12544;46.760;15.942;2023-05-18T12:20:37;6.50;;;3.92;;
24411;SDS011;12544;46.760;15.942;2023-05-18T12:23:03;5.65;;;3.63;;
24411;SDS011;12544;46.760;15.942;2023-05-18T12:25:28;4.97;;;3.85;;
24411;SDS011;12544;46.760;15.942;2023-05-18T12:27:54;5.63;;;3.58;;
24411;SDS011;12544;46.760;15.942;2023-05-18T12:30:24;4.38;;;3.50;;
24411;SDS011;12544;46.760;15.942;2023-05-18T12:32:58;6.40;;;3.90;;
24411;SDS011;12544;46.760;15.942;2023-05-18T12:35:26;6.20;;;3.97;;
24411;SDS011;12544;46.760;15.942;2023-05-18T12:37:53;4.70;;;3.22;;
24411;SDS011;12544;46.760;15.942;2023-05-18T12:40:20;5.00;;;3.53;;
24411;SDS011;12544;46.760;15.942;2023-05-18T12:42:50;6.30;;;3.58;;
24411;SDS011;12544;46.760;15.942;2023-05-18T12:45:27;4.80;;;3.65;;
24411;SDS011;12544;46.760;15.942;2023-05-18T12:50:29;5.60;;;4.03;;
24411;SDS011;12544;46.760;15.942;2023-05-18T12:52:55;4.15;;;3.75;;
24411;SDS011;12544;46.760;15.942;2023-05-18T12:55:21;4.22;;;3.53;;
24411;SDS011;12544;46.760;15.942;2023-05-18T13:00:34;5.33;;;3.53;;
24411;SDS011;12544;46.760;15.942;2023-05-18T13:03:05;4.75;;;3.70;;
24411;SDS011;12544;46.760;15.942;2023-05-18T13:05:36;8.98;;;4.53;;
24411;SDS011;12544;46.760;15.942;2023-05-18T13:08:02;4.55;;;3.42;;
24411;SDS011;12544;46.760;15.942;2023-05-18T13:10:30;6.40;;;3.42;;
24411;SDS011;12544;46.760;15.942;2023-05-18T13:12:57;6.93;;;4.18;;
24411;SDS011;12544;46.760;15.942;2023-05-18T13:15:27;3.95;;;3.55;;
24411;SDS011;12544;46.760;15.942;2023-05-18T13:17:58;6.15;;;3.90;;
24411;SDS011;12544;46.760;15.942;2023-05-18T13:20:29;7.55;;;3.47;;
24411;SDS011;12544;46.760;15.942;2023-05-18T13:23:02;7.45;;;3.80;;
24411;SDS011;12544;46.760;15.942;2023-05-18T13:25:30;11.05;;;4.38;;
24411;SDS011;12544;46.760;15.942;2023-05-18T13:27:56;7.35;;;4.53;;
24411;SDS011;12544;46.760;15.942;2023-05-18T13:30:22;7.07;;;4.93;;
24411;SDS011;12544;46.760;15.942;2023-05-18T13:32:48;6.65;;;4.32;;
24411;SDS011;12544;46.760;15.942;2023-05-18T13:35:15;6.82;;;4.85;;
24411;SDS011;12544;46.760;15.942;2023-05-18T13:37:42;6.18;;;5.20;;
24411;SDS011;12544;46.760;15.942;2023-05-18T13:40:10;9.23;;;5.05;;
24411;SDS011;12544;46.760;15.942;2023-05-18T13:42:37;8.82;;;4.70;;
24411;SDS011;12544;46.760;15.942;2023-05-18T13:45:03;9.18;;;4.80;;
24411;SDS011;12544;46.760;15.942;2023-05-18T13:47:29;8.20;;;4.90;;
24411;SDS011;12544;46.760;15.942;2023-05-18T13:49:55;6.68;;;4.35;;
24411;SDS011;12544;46.760;15.942;2023-05-18T13:52:20;7.70;;;4.80;;
24411;SDS011;12544;46.760;15.942;2023-05-18T13:54:46;6.72;;;4.53;;
24411;SDS011;12544;46.760;15.942;2023-05-18T13:57:12;7.35;;;5.13;;
24411;SDS011;12544;46.760;15.942;2023-05-18T13:59:38;8.45;;;4.70;;
24411;SDS011;12544;46.760;15.942;2023-05-18T14:02:04;7.78;;;4.88;;
24411;SDS011;12544;46.760;15.942;2023-05-18T14:04:30;9.43;;;4.85;;
24411;SDS011;12544;46.760;15.942;2023-05-18T14:06:55;9.65;;;4.82;;
24411;SDS011;12544;46.760;15.942;2023-05-18T14:09:22;7.20;;;5.38;;
24411;SDS011;12544;46.760;15.942;2023-05-18T14:11:48;6.82;;;5.40;;
24411;SDS011;12544;46.760;15.942;2023-05-18T14:14:14;8.20;;;4.85;;
24411;SDS011;12544;46.760;15.942;2023-05-18T14:16:40;6.18;;;4.28;;
24411;SDS011;12544;46.760;15.942;2023-05-18T14:19:05;5.68;;;4.32;;
24411;SDS011;12544;46.760;15.942;2023-05-18T14:21:31;6.47;;;4.65;;
24411;SDS011;12544;46.760;15.942;2023-05-18T14:23:56;6.78;;;4.10;;
24411;SDS011;12544;46.760;15.942;2023-05-18T14:26:27;6.82;;;4.93;;
24411;SDS011;12544;46.760;15.942;2023-05-18T14:28:53;6.15;;;4.82;;
24411;SDS011;12544;46.760;15.942;2023-05-18T14:31:19;6.10;;;5.13;;
24411;SDS011;12544;46.760;15.942;2023-05-18T14:33:44;9.88;;;5.07;;
24411;SDS011;12544;46.760;15.942;2023-05-18T14:36:10;7.00;;;4.65;;
24411;SDS011;12544;46.760;15.942;2023-05-18T14:38:36;7.18;;;4.85;;
24411;SDS011;12544;46.760;15.942;2023-05-18T14:41:01;6.75;;;5.63;;
24411;SDS011;12544;46.760;15.942;2023-05-18T14:43:28;8.80;;;4.57;;
24411;SDS011;12544;46.760;15.942;2023-05-18T14:45:53;7.20;;;4.65;;
24411;SDS011;12544;46.760;15.942;2023-05-18T14:48:19;5.88;;;5.28;;
24411;SDS011;12544;46.760;15.942;2023-05-18T14:50:45;6.38;;;5.25;;
24411;SDS011;12544;46.760;15.942;2023-05-18T14:53:10;7.30;;;5.07;;
24411;SDS011;12544;46.760;15.942;2023-05-18T14:55:36;5.95;;;5.25;;
24411;SDS011;12544;46.760;15.942;2023-05-18T14:58:04;8.57;;;5.45;;
24411;SDS011;12544;46.760;15.942;2023-05-18T15:00:31;5.07;;;4.53;;
24411;SDS011;12544;46.760;15.942;2023-05-18T15:02:57;7.68;;;5.45;;
24411;SDS011;12544;46.760;15.942;2023-05-18T15:05:23;6.18;;;5.57;;
24411;SDS011;12544;46.760;15.942;2023-05-18T15:07:49;5.05;;;4.20;;
24411;SDS011;12544;46.760;15.942;2023-05-18T15:10:14;5.57;;;4.65;;
24411;SDS011;12544;46.760;15.942;2023-05-18T15:12:40;5.78;;;4.45;;
24411;SDS011;12544;46.760;15.942;2023-05-18T15:15:05;8.13;;;4.65;;